Time;durP1;ratioP1;P1;durP2;ratioP2;P2;SDS_P1;SDS_P2;PMS_P1;PMS_P2;Temp;Humidity;BMP_temperature;BMP_pressure;BME280_temperature;BME280_humidity;BME280_pressure;Samples;Min_cycle;Max_cycle;Signal;HPM_P1;HPM_P2
2022/11/23 00:01:53;;;;;;;19.88;11.82;;;;;;;;;;5092630;28;20024;-71
2022/11/23 00:04:20;;;;;;;17.50;10.93;;;;;;;;;;5092531;28;20024;-71
2022/11/23 00:06:46;;;;;;;16.05;10.73;;;;;;;;;;5092285;28;20068;-73
2022/11/23 00:09:12;;;;;;;15.95;10.70;;;;;;;;;;5092676;28;20028;-74
2022/11/23 00:11:39;;;;;;;14.63;8.57;;;;;;;;;;5092371;28;20016;-73
2022/11/23 00:14:05;;;;;;;12.68;7.78;;;;;;;;;;5091987;28;20028;-73
2022/11/23 00:16:31;;;;;;;11.88;7.28;;;;;;;;;;5092025;28;20485;-73
2022/11/23 00:18:59;;;;;;;12.43;7.10;;;;;;;;;;5092625;28;20024;-73
2022/11/23 00:21:26;;;;;;;11.75;7.70;;;;;;;;;;5092343;28;20040;-73
2022/11/23 00:23:52;;;;;;;12.57;7.82;;;;;;;;;;5096376;28;20024;-73
2022/11/23 00:26:19;;;;;;;11.80;8.15;;;;;;;;;;5096356;28;20024;-73
2022/11/23 00:28:46;;;;;;;12.70;7.63;;;;;;;;;;5096259;28;20020;-73
2022/11/23 00:31:13;;;;;;;12.50;7.55;;;;;;;;;;5096267;28;20419;-73
2022/11/23 00:33:40;;;;;;;12.07;8.00;;;;;;;;;;5096514;28;20027;-73
2022/11/23 00:36:14;;;;;;;11.02;7.68;;;;;;;;;;5096562;28;20043;-73
2022/11/23 00:38:41;;;;;;;12.60;8.13;;;;;;;;;;5096259;28;20050;-71
2022/11/23 00:41:09;;;;;;;15.65;8.82;;;;;;;;;;5077825;28;20060;-71
2022/11/23 00:43:35;;;;;;;14.32;8.88;;;;;;;;;;5096275;28;20016;-71
2022/11/23 00:46:09;;;;;;;15.13;9.13;;;;;;;;;;5096373;28;20206;-71
2022/11/23 00:48:36;;;;;;;15.23;7.53;;;;;;;;;;5096132;28;20026;-71
2022/11/23 00:51:04;;;;;;;12.40;6.93;;;;;;;;;;5077919;28;20054;-71
2022/11/23 00:53:30;;;;;;;12.93;7.10;;;;;;;;;;5095995;28;20478;-71
2022/11/23 00:55:57;;;;;;;12.43;7.30;;;;;;;;;;5095621;28;20024;-71
2022/11/23 00:58:23;;;;;;;10.68;6.43;;;;;;;;;;5095825;28;20404;-72
2022/11/23 01:00:50;;;;;;;12.88;6.35;;;;;;;;;;5095981;28;20032;-73
2022/11/23 01:03:16;;;;;;;10.88;5.90;;;;;;;;;;5095858;28;20036;-73
2022/11/23 01:05:43;;;;;;;9.75;5.78;;;;;;;;;;5095905;28;20020;-74
2022/11/23 01:08:09;;;;;;;11.60;6.20;;;;;;;;;;5095651;28;20024;-73
2022/11/23 01:10:35;;;;;;;9.35;5.68;;;;;;;;;;5095563;28;20032;-73
2022/11/23 01:13:01;;;;;;;10.10;5.88;;;;;;;;;;5095568;28;20020;-73
2022/11/23 01:15:28;;;;;;;7.75;5.32;;;;;;;;;;5095453;28;20036;-73
2022/11/23 01:17:54;;;;;;;12.50;6.40;;;;;;;;;;5095474;28;20020;-73
2022/11/23 01:20:20;;;;;;;10.27;6.28;;;;;;;;;;5095274;28;20484;-74
2022/11/23 01:22:47;;;;;;;9.57;6.38;;;;;;;;;;5095677;28;20027;-73
2022/11/23 01:25:13;;;;;;;11.23;6.53;;;;;;;;;;5094976;28;20028;-73
2022/11/23 01:27:39;;;;;;;9.70;5.55;;;;;;;;;;5095469;28;20028;-73
2022/11/23 01:30:06;;;;;;;10.10;5.90;;;;;;;;;;5095388;28;20212;-73
2022/11/23 01:32:32;;;;;;;11.88;5.80;;;;;;;;;;5077024;28;20022;-71
2022/11/23 01:34:58;;;;;;;9.95;5.65;;;;;;;;;;5095540;28;20028;-71
2022/11/23 01:37:25;;;;;;;11.07;5.97;;;;;;;;;;5095162;28;20453;-72
2022/11/23 01:39:51;;;;;;;10.90;6.38;;;;;;;;;;5094335;28;20052;-71
2022/11/23 01:42:17;;;;;;;9.88;6.20;;;;;;;;;;5095079;28;20036;-71
2022/11/23 01:44:45;;;;;;;8.73;5.15;;;;;;;;;;5094990;28;20055;-71
2022/11/23 01:47:11;;;;;;;9.98;5.32;;;;;;;;;;5095036;28;20032;-71
2022/11/23 01:49:43;;;;;;;8.82;4.70;;;;;;;;;;5094853;28;20026;-71
2022/11/23 01:52:11;;;;;;;8.30;4.93;;;;;;;;;;5094804;28;20030;-71
2022/11/23 01:54:46;;;;;;;6.90;4.50;;;;;;;;;;5076206;28;20507;-71
2022/11/23 01:57:17;;;;;;;7.40;4.13;;;;;;;;;;5094803;28;20084;-71
2022/11/23 01:59:44;;;;;;;7.55;4.50;;;;;;;;;;5094411;28;20028;-72
2022/11/23 02:02:11;;;;;;;8.48;4.53;;;;;;;;;;5093283;28;20046;-71
2022/11/23 02:04:40;;;;;;;7.13;4.43;;;;;;;;;;5094470;28;20024;-71
2022/11/23 02:07:06;;;;;;;9.27;4.38;;;;;;;;;;5094528;28;20032;-71
2022/11/23 02:09:33;;;;;;;7.22;4.60;;;;;;;;;;5094453;28;20026;-71
2022/11/23 02:12:00;;;;;;;7.82;4.82;;;;;;;;;;5094266;28;20843;-71
2022/11/23 02:14:26;;;;;;;7.10;4.57;;;;;;;;;;5094214;28;20553;-71
2022/11/23 02:16:53;;;;;;;10.80;4.95;;;;;;;;;;5094329;28;20027;-71
2022/11/23 02:19:41;;;;;;;8.35;5.28;;;;;;;;;;5094483;28;20020;-71
2022/11/23 02:22:12;;;;;;;7.85;5.20;;;;;;;;;;5094516;28;20028;-71
2022/11/23 02:24:41;;;;;;;10.40;5.90;;;;;;;;;;5093895;28;20028;-71
2022/11/23 02:27:08;;;;;;;8.68;5.60;;;;;;;;;;5094148;28;20035;-71
2022/11/23 02:29:34;;;;;;;11.50;5.72;;;;;;;;;;5094010;28;20101;-71
2022/11/23 02:32:01;;;;;;;9.05;5.57;;;;;;;;;;5094031;28;20035;-71
2022/11/23 02:34:27;;;;;;;8.95;6.32;;;;;;;;;;5093854;28;20024;-71
2022/11/23 02:36:55;;;;;;;9.25;6.35;;;;;;;;;;5094081;28;20034;-71
2022/11/23 02:39:26;;;;;;;9.55;6.22;;;;;;;;;;5093396;28;20061;-71
2022/11/23 02:41:53;;;;;;;10.88;6.28;;;;;;;;;;5093452;28;20036;-71
2022/11/23 02:44:25;;;;;;;8.77;5.47;;;;;;;;;;5093697;28;20019;-71
2022/11/23 02:46:52;;;;;;;11.52;5.88;;;;;;;;;;5076035;28;20054;-71
2022/11/23 02:49:18;;;;;;;9.25;5.72;;;;;;;;;;5093652;28;20032;-71
2022/11/23 02:51:45;;;;;;;10.30;5.78;;;;;;;;;;5093444;28;20503;-72
2022/11/23 02:54:11;;;;;;;11.65;7.82;;;;;;;;;;5093886;28;20072;-71
2022/11/23 02:56:37;;;;;;;14.43;7.10;;;;;;;;;;5093429;28;20016;-71
2022/11/23 02:59:04;;;;;;;9.10;5.72;;;;;;;;;;5093691;28;20028;-71
2022/11/23 03:01:30;;;;;;;10.95;5.82;;;;;;;;;;5093455;28;20032;-71
2022/11/23 03:03:56;;;;;;;8.15;5.65;;;;;;;;;;5093360;28;20515;-71
2022/11/23 03:06:23;;;;;;;10.48;5.75;;;;;;;;;;5092900;28;20039;-71
2022/11/23 03:08:49;;;;;;;8.13;5.40;;;;;;;;;;5093324;28;20089;-72
2022/11/23 03:11:16;;;;;;;10.32;5.95;;;;;;;;;;5093345;28;20402;-71
2022/11/23 03:13:42;;;;;;;12.77;6.53;;;;;;;;;;5093601;28;20008;-71
2022/11/23 03:16:09;;;;;;;10.82;6.32;;;;;;;;;;5093058;28;20020;-71
2022/11/23 03:18:35;;;;;;;8.65;5.50;;;;;;;;;;5093130;28;20016;-71
2022/11/23 03:21:02;;;;;;;10.75;5.38;;;;;;;;;;5074662;28;20036;-71
2022/11/23 03:23:29;;;;;;;9.20;5.63;;;;;;;;;;5093047;28;20050;-71
2022/11/23 03:25:56;;;;;;;8.23;5.45;;;;;;;;;;5093254;28;20026;-71
2022/11/23 03:28:22;;;;;;;8.73;5.80;;;;;;;;;;5092979;28;20026;-72
2022/11/23 03:30:48;;;;;;;7.95;5.57;;;;;;;;;;5092900;28;20514;-71
2022/11/23 03:33:15;;;;;;;9.05;5.63;;;;;;;;;;5092750;28;20028;-71
2022/11/23 03:35:41;;;;;;;7.43;4.95;;;;;;;;;;5092365;28;20044;-71
2022/11/23 03:38:07;;;;;;;9.18;5.07;;;;;;;;;;5093089;28;20040;-71
2022/11/23 03:40:34;;;;;;;10.27;5.35;;;;;;;;;;5092379;28;20076;-71
2022/11/23 03:43:00;;;;;;;8.52;5.47;;;;;;;;;;5092969;28;20034;-71
2022/11/23 03:45:26;;;;;;;9.82;5.93;;;;;;;;;;5092653;28;20024;-71
2022/11/23 03:47:53;;;;;;;10.55;5.95;;;;;;;;;;5092464;28;20024;-71
2022/11/23 03:50:19;;;;;;;8.30;5.40;;;;;;;;;;5092190;28;20024;-71
2022/11/23 03:52:47;;;;;;;11.02;6.00;;;;;;;;;;5092825;28;20032;-71
2022/11/23 03:55:14;;;;;;;12.10;5.32;;;;;;;;;;5092428;28;20491;-71
2022/11/23 03:57:40;;;;;;;7.32;5.10;;;;;;;;;;5091507;28;20515;-71
2022/11/23 04:00:07;;;;;;;9.30;5.80;;;;;;;;;;5092457;28;20028;-71
2022/11/23 04:02:34;;;;;;;11.45;6.25;;;;;;;;;;5092728;28;20034;-71
2022/11/23 04:05:01;;;;;;;9.07;6.22;;;;;;;;;;5092031;28;20420;-71
2022/11/23 04:07:27;;;;;;;9.43;7.18;;;;;;;;;;5091185;28;20038;-71
2022/11/23 04:09:53;;;;;;;8.65;6.10;;;;;;;;;;5092486;28;20024;-73
2022/11/23 04:12:20;;;;;;;9.98;5.72;;;;;;;;;;5092058;28;20024;-71
2022/11/23 04:14:46;;;;;;;11.13;7.07;;;;;;;;;;5092347;28;20031;-71
2022/11/23 04:17:12;;;;;;;10.27;6.57;;;;;;;;;;5092111;28;20481;-72
2022/11/23 04:19:39;;;;;;;8.95;6.00;;;;;;;;;;5091944;28;20077;-71
2022/11/23 04:22:05;;;;;;;7.75;5.82;;;;;;;;;;5092145;28;20493;-71
2022/11/23 04:24:31;;;;;;;10.82;6.55;;;;;;;;;;5092376;28;20016;-71
2022/11/23 04:26:57;;;;;;;9.20;6.03;;;;;;;;;;5092148;28;20024;-72
2022/11/23 04:29:24;;;;;;;11.10;6.07;;;;;;;;;;5092352;28;20030;-71
2022/11/23 04:31:50;;;;;;;11.15;6.97;;;;;;;;;;5092093;28;20407;-71
2022/11/23 04:34:16;;;;;;;17.38;10.20;;;;;;;;;;5091890;28;20477;-72
2022/11/23 04:36:43;;;;;;;10.70;7.30;;;;;;;;;;5092047;28;20024;-71
2022/11/23 04:39:12;;;;;;;11.48;6.63;;;;;;;;;;5091897;28;20044;-71
2022/11/23 04:41:38;;;;;;;10.98;6.53;;;;;;;;;;5091650;28;20039;-72
2022/11/23 04:44:05;;;;;;;9.95;6.82;;;;;;;;;;5092105;28;20024;-71
2022/11/23 04:46:32;;;;;;;9.65;6.47;;;;;;;;;;5092285;28;20053;-71
2022/11/23 04:48:58;;;;;;;9.50;6.20;;;;;;;;;;5091656;28;20496;-71
2022/11/23 04:51:24;;;;;;;12.15;6.95;;;;;;;;;;5092520;28;20020;-71
2022/11/23 04:53:51;;;;;;;12.43;7.85;;;;;;;;;;5091943;28;20024;-71
2022/11/23 04:56:17;;;;;;;12.23;7.90;;;;;;;;;;5092174;28;20028;-71
2022/11/23 04:58:43;;;;;;;10.50;7.78;;;;;;;;;;5092083;28;20473;-71
2022/11/23 05:01:10;;;;;;;10.05;6.95;;;;;;;;;;5092135;28;20034;-71
2022/11/23 05:03:36;;;;;;;8.45;6.38;;;;;;;;;;5091562;28;20024;-71
2022/11/23 05:06:03;;;;;;;10.73;7.50;;;;;;;;;;5091885;28;20032;-71
2022/11/23 05:08:30;;;;;;;15.10;8.98;;;;;;;;;;5093925;28;20020;-71
2022/11/23 05:10:56;;;;;;;9.65;7.03;;;;;;;;;;5095681;28;20522;-71
2022/11/23 05:13:23;;;;;;;10.20;7.47;;;;;;;;;;5095583;28;20034;-71
2022/11/23 05:15:49;;;;;;;10.88;6.93;;;;;;;;;;5095362;28;20028;-71
2022/11/23 05:18:15;;;;;;;10.20;7.03;;;;;;;;;;5095049;28;20020;-72
2022/11/23 05:20:42;;;;;;;10.52;7.00;;;;;;;;;;5095275;28;20040;-72
2022/11/23 05:23:09;;;;;;;9.45;6.78;;;;;;;;;;5095359;28;20037;-71
2022/11/23 05:25:35;;;;;;;8.98;6.22;;;;;;;;;;5095252;28;20104;-71
2022/11/23 05:28:02;;;;;;;10.88;7.63;;;;;;;;;;5095249;28;20024;-72
2022/11/23 05:30:28;;;;;;;9.20;6.50;;;;;;;;;;5095184;28;20046;-71
2022/11/23 05:32:59;;;;;;;18.10;11.23;;;;;;;;;;5094873;28;20258;-71
2022/11/23 05:35:25;;;;;;;;;;;;;;;;;;5095726;28;20434;-71
2022/11/23 05:37:52;;;;;;;20.48;12.07;;;;;;;;;;5094958;28;19912;-71
2022/11/23 05:40:19;;;;;;;10.82;7.60;;;;;;;;;;5094795;28;20036;-71
2022/11/23 05:42:45;;;;;;;17.77;9.52;;;;;;;;;;5095176;28;20034;-71
2022/11/23 05:45:11;;;;;;;16.02;10.05;;;;;;;;;;5095063;28;20023;-71
2022/11/23 05:47:37;;;;;;;12.35;6.53;;;;;;;;;;5094669;28;20024;-71
2022/11/23 05:50:04;;;;;;;16.05;8.43;;;;;;;;;;5095065;28;20028;-71
2022/11/23 05:52:30;;;;;;;12.57;7.13;;;;;;;;;;5094769;28;20492;-74
2022/11/23 05:54:56;;;;;;;7.65;5.25;;;;;;;;;;5094902;28;20024;-73
2022/11/23 05:57:23;;;;;;;6.35;4.75;;;;;;;;;;5094721;28;20031;-73
2022/11/23 05:59:49;;;;;;;6.65;5.07;;;;;;;;;;5093462;28;20036;-73
2022/11/23 06:02:16;;;;;;;10.80;7.75;;;;;;;;;;5094308;28;20032;-73
2022/11/23 06:04:42;;;;;;;9.65;6.28;;;;;;;;;;5094809;28;20024;-74
2022/11/23 06:07:08;;;;;;;6.20;4.68;;;;;;;;;;5094841;28;20020;-73
2022/11/23 06:09:35;;;;;;;6.20;4.28;;;;;;;;;;5094824;28;20030;-73
2022/11/23 06:12:01;;;;;;;9.00;5.93;;;;;;;;;;5094459;28;20392;-73
2022/11/23 06:14:27;;;;;;;19.10;11.35;;;;;;;;;;5094430;28;20477;-73
2022/11/23 06:16:54;;;;;;;13.88;8.90;;;;;;;;;;5094276;28;20030;-73
2022/11/23 06:19:21;;;;;;;11.70;8.20;;;;;;;;;;5093342;28;20028;-73
2022/11/23 06:21:47;;;;;;;14.20;7.82;;;;;;;;;;5094224;28;20028;-73
2022/11/23 06:24:13;;;;;;;12.95;7.93;;;;;;;;;;5094237;28;20488;-73
2022/11/23 06:26:39;;;;;;;22.98;10.95;;;;;;;;;;5094291;28;20016;-73
2022/11/23 06:29:06;;;;;;;15.75;9.43;;;;;;;;;;5093937;28;20024;-73
2022/11/23 06:31:32;;;;;;;11.15;7.00;;;;;;;;;;5094100;28;20036;-73
2022/11/23 06:33:58;;;;;;;29.70;18.48;;;;;;;;;;5093971;28;20023;-73
2022/11/23 06:36:25;;;;;;;16.33;11.25;;;;;;;;;;5093790;28;20034;-73
2022/11/23 06:38:52;;;;;;;11.18;7.72;;;;;;;;;;5093932;28;20033;-73
2022/11/23 06:41:18;;;;;;;8.98;5.75;;;;;;;;;;5093502;28;20039;-73
2022/11/23 06:43:46;;;;;;;7.45;4.57;;;;;;;;;;5093393;28;20538;-74
2022/11/23 06:46:12;;;;;;;7.18;4.82;;;;;;;;;;5094053;28;20032;-73
2022/11/23 06:48:38;;;;;;;7.25;5.05;;;;;;;;;;5093671;28;20024;-73
2022/11/23 06:51:05;;;;;;;9.13;5.88;;;;;;;;;;5093743;28;20035;-73
2022/11/23 06:53:31;;;;;;;8.93;5.47;;;;;;;;;;5093678;28;20024;-73
2022/11/23 06:55:58;;;;;;;8.25;5.45;;;;;;;;;;5093360;28;20024;-73
2022/11/23 06:58:24;;;;;;;9.65;5.80;;;;;;;;;;5093248;28;20020;-73
2022/11/23 07:00:51;;;;;;;12.23;6.80;;;;;;;;;;5093349;28;20428;-73
2022/11/23 07:03:19;;;;;;;9.75;5.88;;;;;;;;;;5093245;28;20026;-73
2022/11/23 07:05:45;;;;;;;10.93;5.15;;;;;;;;;;5093521;28;20541;-73
2022/11/23 07:08:11;;;;;;;6.45;4.40;;;;;;;;;;5093363;28;20031;-73
2022/11/23 07:10:38;;;;;;;5.03;4.20;;;;;;;;;;5083433;28;20530;-73
2022/11/23 07:13:05;;;;;;;7.15;4.72;;;;;;;;;;5086332;28;20017;-73
2022/11/23 07:15:31;;;;;;;10.73;6.72;;;;;;;;;;5092223;28;20031;-73
2022/11/23 07:17:58;;;;;;;9.30;6.75;;;;;;;;;;5092586;28;20477;-73
2022/11/23 07:20:24;;;;;;;13.23;8.35;;;;;;;;;;5082459;28;20384;-73
2022/11/23 07:23:04;;;;;;;10.35;6.82;;;;;;;;;;5083793;28;20028;-73
2022/11/23 07:25:31;;;;;;;8.27;4.63;;;;;;;;;;5078341;28;20017;-72
2022/11/23 07:27:58;;;;;;;8.85;5.30;;;;;;;;;;5079393;28;20485;-72
2022/11/23 07:30:25;;;;;;;7.95;4.20;;;;;;;;;;5082040;28;20016;-72
2022/11/23 07:32:52;;;;;;;7.28;4.47;;;;;;;;;;5084385;28;20031;-72
2022/11/23 07:35:19;;;;;;;7.75;4.55;;;;;;;;;;5091736;28;20070;-73
2022/11/23 07:37:46;;;;;;;13.65;8.20;;;;;;;;;;5091943;28;20032;-73
2022/11/23 07:40:13;;;;;;;8.65;5.90;;;;;;;;;;5089522;28;20028;-72
2022/11/23 07:42:39;;;;;;;9.77;6.15;;;;;;;;;;5080072;28;20390;-73
2022/11/23 07:45:06;;;;;;;11.50;7.15;;;;;;;;;;5086720;28;20096;-73
2022/11/23 07:47:32;;;;;;;13.70;8.25;;;;;;;;;;5091181;28;20503;-73
2022/11/23 07:49:58;;;;;;;11.82;7.25;;;;;;;;;;5089408;28;20020;-73
2022/11/23 07:52:25;;;;;;;12.00;6.75;;;;;;;;;;5091188;28;20096;-73
2022/11/23 07:54:51;;;;;;;14.73;7.20;;;;;;;;;;5090894;28;20024;-73
2022/11/23 07:57:18;;;;;;;10.02;6.60;;;;;;;;;;5090211;28;20023;-73
2022/11/23 07:59:44;;;;;;;14.27;7.78;;;;;;;;;;5090199;28;20108;-73
2022/11/23 08:02:16;;;;;;;57.38;35.78;;;;;;;;;;5090581;28;20396;-73
2022/11/23 08:04:42;;;;;;;28.10;18.38;;;;;;;;;;5091336;28;20016;-73
2022/11/23 08:07:08;;;;;;;14.82;10.20;;;;;;;;;;5090681;28;20477;-73
2022/11/23 08:09:35;;;;;;;14.23;8.65;;;;;;;;;;5085007;28;20034;-74
2022/11/23 08:12:01;;;;;;;22.35;13.35;;;;;;;;;;5090856;28;20030;-74
2022/11/23 08:14:27;;;;;;;15.98;10.40;;;;;;;;;;5071263;28;20031;-74
2022/11/23 08:16:54;;;;;;;11.15;6.35;;;;;;;;;;5091083;28;20024;-73
2022/11/23 08:19:20;;;;;;;15.50;6.28;;;;;;;;;;5091374;28;20020;-73
2022/11/23 08:21:46;;;;;;;3.75;2.90;;;;;;;;;;5091166;28;20032;-73
2022/11/23 08:24:13;;;;;;;8.85;5.65;;;;;;;;;;5091451;28;20020;-73
2022/11/23 08:26:39;;;;;;;7.90;4.28;;;;;;;;;;5090797;28;20032;-73
2022/11/23 08:29:05;;;;;;;7.13;4.10;;;;;;;;;;5091217;28;20034;-73
2022/11/23 08:31:32;;;;;;;14.55;7.78;;;;;;;;;;5085925;28;20031;-73
2022/11/23 08:33:58;;;;;;;19.30;7.25;;;;;;;;;;5086651;28;20008;-73
2022/11/23 08:36:24;;;;;;;5.20;3.88;;;;;;;;;;5090816;28;20024;-73
2022/11/23 08:38:51;;;;;;;3.67;2.90;;;;;;;;;;5090525;28;20036;-73
2022/11/23 08:41:19;;;;;;;3.72;3.15;;;;;;;;;;5081897;28;20036;-73
2022/11/23 08:43:46;;;;;;;3.25;2.63;;;;;;;;;;5093521;28;20034;-73
2022/11/23 08:46:13;;;;;;;5.95;4.45;;;;;;;;;;5095138;28;20024;-73
2022/11/23 08:48:39;;;;;;;22.02;11.27;;;;;;;;;;5095022;28;20399;-73
2022/11/23 08:51:06;;;;;;;15.77;8.00;;;;;;;;;;5095308;28;20035;-73
2022/11/23 08:53:33;;;;;;;15.30;8.38;;;;;;;;;;5094545;28;20032;-73
2022/11/23 08:56:04;;;;;;;9.20;5.40;;;;;;;;;;5094649;28;20032;-73
2022/11/23 08:58:30;;;;;;;7.55;3.92;;;;;;;;;;5095026;28;20024;-73
2022/11/23 09:00:57;;;;;;;4.90;4.15;;;;;;;;;;5093261;28;20043;-73
2022/11/23 09:03:23;;;;;;;8.93;5.78;;;;;;;;;;5094598;28;20028;-74
2022/11/23 09:05:53;;;;;;;9.10;5.53;;;;;;;;;;5094061;28;20506;-73
2022/11/23 09:08:19;;;;;;;7.55;5.35;;;;;;;;;;5094908;28;20030;-73
2022/11/23 09:10:46;;;;;;;4.90;3.90;;;;;;;;;;5094751;28;20020;-73
2022/11/23 09:13:12;;;;;;;6.55;4.90;;;;;;;;;;5076108;28;20042;-73
2022/11/23 09:15:38;;;;;;;7.90;4.05;;;;;;;;;;5093346;28;20024;-73
2022/11/23 09:18:05;;;;;;;6.10;3.97;;;;;;;;;;5094013;28;20031;-74
2022/11/23 09:20:31;;;;;;;7.75;4.50;;;;;;;;;;5093727;28;20032;-74
2022/11/23 09:22:57;;;;;;;4.63;3.50;;;;;;;;;;5075243;28;20032;-74
2022/11/23 09:25:24;;;;;;;5.10;3.70;;;;;;;;;;5093836;28;20020;-74
2022/11/23 09:27:56;;;;;;;5.75;4.32;;;;;;;;;;5075953;28;20446;-73
2022/11/23 09:30:22;;;;;;;4.75;3.85;;;;;;;;;;5093196;28;20043;-74
2022/11/23 09:32:48;;;;;;;10.75;6.78;;;;;;;;;;5093798;28;20024;-73
2022/11/23 09:35:15;;;;;;;8.75;4.88;;;;;;;;;;5091376;28;20036;-71
2022/11/23 09:37:41;;;;;;;9.30;6.10;;;;;;;;;;5092298;28;20028;-73
2022/11/23 09:40:09;;;;;;;6.75;4.57;;;;;;;;;;5086506;28;20392;-73
2022/11/23 09:42:51;;;;;;;7.35;3.63;;;;;;;;;;5080475;28;20028;-73
2022/11/23 09:45:21;;;;;;;4.70;3.45;;;;;;;;;;5092422;28;20016;-73
2022/11/23 09:48:00;;;;;;;5.47;3.30;;;;;;;;;;5093685;28;20073;-73
2022/11/23 09:50:27;;;;;;;3.80;2.95;;;;;;;;;;5079319;28;20049;-74
2022/11/23 09:52:54;;;;;;;6.30;3.15;;;;;;;;;;5075421;28;20504;-74
2022/11/23 09:55:39;;;;;;;5.00;3.28;;;;;;;;;;5090897;28;20022;-73
2022/11/23 09:58:06;;;;;;;7.22;3.80;;;;;;;;;;5093715;28;20028;-74
2022/11/23 10:00:37;;;;;;;4.50;3.28;;;;;;;;;;5093426;28;20042;-74
2022/11/23 10:03:03;;;;;;;3.75;3.00;;;;;;;;;;5104056;28;20484;-73
2022/11/23 10:05:32;;;;;;;3.70;3.17;;;;;;;;;;5092009;28;20016;-73
2022/11/23 10:08:05;;;;;;;5.05;3.53;;;;;;;;;;5084603;28;20039;-74
2022/11/23 10:10:38;;;;;;;7.00;3.80;;;;;;;;;;5092736;28;20404;-73
2022/11/23 10:13:23;;;;;;;3.65;3.30;;;;;;;;;;5093354;28;20016;-73
2022/11/23 10:15:52;;;;;;;5.15;3.50;;;;;;;;;;5091293;28;20016;-74
2022/11/23 10:18:34;;;;;;;4.45;3.80;;;;;;;;;;5093005;28;20077;-73
2022/11/23 10:21:04;;;;;;;7.57;4.20;;;;;;;;;;5091755;28;20404;-73
2022/11/23 10:23:30;;;;;;;5.05;3.80;;;;;;;;;;5090957;28;20367;-73
2022/11/23 10:25:56;;;;;;;5.30;3.80;;;;;;;;;;5092471;28;20039;-74
2022/11/23 10:28:23;;;;;;;7.18;4.70;;;;;;;;;;5092552;28;20020;-73
2022/11/23 10:31:08;;;;;;;10.43;5.45;;;;;;;;;;5092785;28;20054;-74
2022/11/23 10:33:39;;;;;;;7.72;5.25;;;;;;;;;;5092815;28;20027;-73
2022/11/23 10:36:07;;;;;;;8.60;5.97;;;;;;;;;;5091554;28;20463;-74
2022/11/23 10:38:33;;;;;;;10.50;6.25;;;;;;;;;;5092454;28;20060;-74
2022/11/23 10:41:00;;;;;;;16.40;10.32;;;;;;;;;;5091655;28;20024;-74
2022/11/23 10:43:29;;;;;;;6.55;4.55;;;;;;;;;;5083930;28;20027;-74
2022/11/23 10:46:14;;;;;;;6.60;4.85;;;;;;;;;;5092563;28;20028;-74
2022/11/23 10:48:40;;;;;;;6.50;4.97;;;;;;;;;;5092739;28;20042;-73
2022/11/23 10:51:19;;;;;;;12.38;7.28;;;;;;;;;;5092834;28;20050;-74
2022/11/23 10:53:50;;;;;;;13.18;7.88;;;;;;;;;;5091909;28;20032;-73
2022/11/23 10:56:17;;;;;;;7.60;5.32;;;;;;;;;;5091269;28;20020;-74
2022/11/23 10:58:45;;;;;;;7.93;5.00;;;;;;;;;;5092123;28;20032;-73
2022/11/23 11:01:15;;;;;;;8.02;4.60;;;;;;;;;;5086328;28;20550;-74
2022/11/23 11:03:42;;;;;;;6.63;5.13;;;;;;;;;;5079391;28;20029;-74
2022/11/23 11:06:09;;;;;;;8.88;5.88;;;;;;;;;;5085243;28;20416;-73
2022/11/23 11:08:37;;;;;;;11.70;7.43;;;;;;;;;;5092082;28;20787;-74
2022/11/23 11:11:20;;;;;;;7.70;5.82;;;;;;;;;;5091404;28;20032;-73
2022/11/23 11:13:47;;;;;;;10.02;6.60;;;;;;;;;;5092321;28;20044;-74
2022/11/23 11:16:29;;;;;;;11.88;7.93;;;;;;;;;;5092295;28;20016;-73
2022/11/23 11:18:56;;;;;;;19.33;11.00;;;;;;;;;;5091870;28;20580;-74
2022/11/23 11:21:23;;;;;;;11.35;7.88;;;;;;;;;;5091721;28;20609;-73
2022/11/23 11:23:59;;;;;;;13.43;8.20;;;;;;;;;;5092186;28;20382;-73
2022/11/23 11:26:27;;;;;;;15.43;8.30;;;;;;;;;;5091807;28;20598;-73
2022/11/23 11:28:55;;;;;;;19.55;12.77;;;;;;;;;;5091566;28;20026;-73
2022/11/23 11:31:33;;;;;;;14.52;8.98;;;;;;;;;;5091177;28;20808;-74
2022/11/23 11:34:28;;;;;;;11.57;7.82;;;;;;;;;;5090564;28;20035;-74
2022/11/23 11:37:20;;;;;;;16.60;7.07;;;;;;;;;;4970591;28;20047;-74
2022/11/23 11:40:05;;;;;;;10.00;7.25;;;;;;;;;;4913541;29;20109;-72
2022/11/23 11:42:38;;;;;;;23.77;14.23;;;;;;;;;;4899910;29;20478;-74
2022/11/23 11:45:06;;;;;;;23.75;13.50;;;;;;;;;;4913245;29;20040;-74
2022/11/23 11:47:36;;;;;;;14.23;9.30;;;;;;;;;;4913595;29;20044;-73
2022/11/23 11:50:13;;;;;;;13.52;9.52;;;;;;;;;;4913685;29;20048;-73
2022/11/23 11:52:41;;;;;;;11.50;9.05;;;;;;;;;;4913727;29;20035;-73
2022/11/23 11:55:11;;;;;;;9.55;7.97;;;;;;;;;;4913537;29;20137;-73
2022/11/23 11:57:52;;;;;;;13.32;7.85;;;;;;;;;;4914109;29;20046;-73
2022/11/23 12:00:19;;;;;;;8.40;5.90;;;;;;;;;;4913683;29;20044;-74
2022/11/23 12:02:54;;;;;;;8.20;6.07;;;;;;;;;;4913555;29;20127;-73
2022/11/23 12:05:21;;;;;;;10.40;6.75;;;;;;;;;;4913762;29;20032;-73
2022/11/23 12:07:50;;;;;;;10.57;5.88;;;;;;;;;;4913609;29;20505;-74
2022/11/23 12:10:48;;;;;;;8.90;6.07;;;;;;;;;;4913835;29;20058;-74
2022/11/23 12:13:25;;;;;;;11.77;6.18;;;;;;;;;;4893880;29;20405;-74
2022/11/23 12:15:55;;;;;;;9.73;6.60;;;;;;;;;;4929034;28;20038;-73
2022/11/23 12:18:32;;;;;;;8.13;6.07;;;;;;;;;;4989295;28;20515;-74
2022/11/23 12:21:17;;;;;;;7.03;5.70;;;;;;;;;;4990168;28;20446;-74
2022/11/23 12:23:52;;;;;;;8.32;6.85;;;;;;;;;;4990360;28;20031;-74
2022/11/23 12:26:24;;;;;;;8.70;6.82;;;;;;;;;;4990200;28;20035;-74
2022/11/23 12:28:50;;;;;;;9.73;6.75;;;;;;;;;;4990014;28;20416;-74
2022/11/23 12:31:22;;;;;;;8.77;6.13;;;;;;;;;;4989076;28;20042;-74
2022/11/23 12:34:01;;;;;;;7.95;6.60;;;;;;;;;;4999581;28;20018;-74
2022/11/23 12:36:35;;;;;;;11.55;7.65;;;;;;;;;;5009910;28;20092;-74
2022/11/23 12:39:20;;;;;;;12.88;8.45;;;;;;;;;;5009563;28;20049;-74
2022/11/23 12:41:55;;;;;;;10.85;8.23;;;;;;;;;;5004489;28;20042;-74
2022/11/23 12:44:40;;;;;;;13.02;8.75;;;;;;;;;;5009130;28;20376;-74
2022/11/23 12:47:22;;;;;;;12.70;8.63;;;;;;;;;;5008171;28;20022;-74
2022/11/23 12:50:01;;;;;;;5.47;3.58;;;;;;;;;;5082970;28;20040;-74
2022/11/23 12:52:30;;;;;;;3.50;2.47;;;;;;;;;;5091096;28;20485;-73
2022/11/23 12:55:15;;;;;;;29.15;11.18;;;;;;;;;;5090791;28;20035;-74
2022/11/23 12:58:05;;;;;;;9.52;4.22;;;;;;;;;;5091233;28;20594;-73
2022/11/23 13:00:35;;;;;;;22.23;9.80;;;;;;;;;;5077736;28;20036;-73
2022/11/23 13:03:20;;;;;;;6.63;4.13;;;;;;;;;;5090720;28;20030;-74
2022/11/23 13:06:05;;;;;;;2.78;1.20;;;;;;;;;;5090874;28;20493;-74
2022/11/23 13:08:34;;;;;;;6.28;3.17;;;;;;;;;;5091105;28;20028;-74
2022/11/23 13:11:12;;;;;;;3.78;2.50;;;;;;;;;;5091018;28;20030;-71
2022/11/23 13:13:47;;;;;;;2.15;1.38;;;;;;;;;;5090871;28;20439;-71
2022/11/23 13:16:37;;;;;;;2.20;1.02;;;;;;;;;;5072893;28;20061;-72
2022/11/23 13:19:14;;;;;;;2.67;1.00;;;;;;;;;;4989335;28;20042;-72
2022/11/23 13:21:43;;;;;;;3.28;1.10;;;;;;;;;;4989303;28;20047;-72
2022/11/23 13:24:28;;;;;;;3.67;1.48;;;;;;;;;;4989744;28;20042;-71
2022/11/23 13:27:12;;;;;;;3.78;1.25;;;;;;;;;;4989616;28;20037;-72
2022/11/23 13:29:50;;;;;;;7.80;2.22;;;;;;;;;;4992775;28;20040;-72
2022/11/23 13:32:35;;;;;;;6.28;1.60;;;;;;;;;;5012388;28;20026;-72
2022/11/23 13:35:02;;;;;;;5.57;2.20;;;;;;;;;;4993490;28;20034;-70
2022/11/23 13:37:30;;;;;;;9.30;4.15;;;;;;;;;;4993087;28;20046;-71
2022/11/23 13:39:57;;;;;;;7.28;2.47;;;;;;;;;;4992365;28;20135;-72
2022/11/23 13:42:26;;;;;;;10.18;3.25;;;;;;;;;;4992173;28;20062;-72
2022/11/23 13:45:29;;;;;;;6.53;2.25;;;;;;;;;;4992217;28;20023;-71
2022/11/23 13:48:13;;;;;;;10.40;2.30;;;;;;;;;;4915763;29;20075;-71
2022/11/23 13:50:39;;;;;;;6.70;2.25;;;;;;;;;;4915572;29;20044;-72
2022/11/23 13:53:21;;;;;;;5.93;2.00;;;;;;;;;;4914688;29;20048;-71
2022/11/23 13:55:47;;;;;;;5.68;1.13;;;;;;;;;;4944662;28;20043;-72
2022/11/23 13:58:22;;;;;;;6.85;1.73;;;;;;;;;;4991851;28;20033;-72
2022/11/23 14:00:50;;;;;;;5.50;1.10;;;;;;;;;;4991479;28;20027;-71
2022/11/23 14:03:35;;;;;;;6.97;1.17;;;;;;;;;;4991745;28;20546;-72
2022/11/23 14:06:03;;;;;;;4.13;1.45;;;;;;;;;;4992154;28;20492;-71
2022/11/23 14:08:29;;;;;;;4.50;1.60;;;;;;;;;;4990717;28;20045;-71
2022/11/23 14:10:57;;;;;;;7.43;2.30;;;;;;;;;;4975633;28;20038;-72
2022/11/23 14:13:25;;;;;;;6.10;1.90;;;;;;;;;;4991484;28;20632;-72
2022/11/23 14:15:54;;;;;;;8.52;2.00;;;;;;;;;;4991276;28;20042;-72
2022/11/23 14:18:39;;;;;;;7.45;1.98;;;;;;;;;;4991824;28;20044;-71
2022/11/23 14:21:12;;;;;;;6.00;2.38;;;;;;;;;;5009933;28;20056;-74
2022/11/23 14:23:57;;;;;;;8.40;2.67;;;;;;;;;;5075674;28;20020;-74
2022/11/23 14:26:34;;;;;;;14.10;4.82;;;;;;;;;;5093284;28;20039;-75
2022/11/23 14:29:19;;;;;;;10.50;2.45;;;;;;;;;;5093311;28;20024;-75
2022/11/23 14:31:55;;;;;;;10.02;2.80;;;;;;;;;;5093264;28;20041;-74
2022/11/23 14:34:41;;;;;;;12.02;3.08;;;;;;;;;;5093238;28;20469;-74
2022/11/23 14:37:18;;;;;;;19.58;6.85;;;;;;;;;;5093474;28;20656;-72
2022/11/23 14:39:51;;;;;;;12.60;3.90;;;;;;;;;;5074668;28;20085;-72
2022/11/23 14:42:19;;;;;;;11.15;3.00;;;;;;;;;;5092121;28;20047;-71
2022/11/23 14:44:47;;;;;;;10.65;3.05;;;;;;;;;;5093182;28;20392;-71
2022/11/23 14:47:13;;;;;;;15.05;4.32;;;;;;;;;;5092998;28;20024;-71
2022/11/23 14:49:50;;;;;;;9.27;2.20;;;;;;;;;;5093314;28;20023;-72